WetterOnline ( https://www.wetteronline.ch )

Wetter aktuell Aachen

Aktuelles Wetter: Aachen-Orsbach (231m)

6-stündlich | Neueste Meldungen
Ortszeit Temperatur Wetter
So, 26.01. 7:00 6.5° C bedeckt
So, 26.01. 1:00 1.9° C bedeckt
Sa, 25.01. 19:00 2.7° C Nebel
Sa, 25.01. 13:00 2.6° C Nebel
Sa, 25.01. 7:00 -0.3° C Nebel
Sa, 25.01. 1:00 -0.8° C bedeckt
Fr, 24.01. 19:00 -1.4° C fast wolkenlos
Fr, 24.01. 13:00 -0.1° C bedeckt
Ortszeit Temperatur Wetter
So, 26.01. 9:30 6.1° C wolkig
So, 26.01. 9:20 6.1° C wolkig
So, 26.01. 9:10 6.2° C wolkig
So, 26.01. 9:00 6.4° C bedeckt
So, 26.01. 8:50 6.4° C bedeckt
So, 26.01. 8:40 6.6° C bedeckt
So, 26.01. 8:30 6.6° C bedeckt
So, 26.01. 8:00 6.7° C bedeckt
So, 26.01. 6:00 5.1° C bedeckt
Ortszeit Relative Feuchte Sichtweite
So, 26.01. 7:00 76% 30 km
So, 26.01. 1:00 93% 16 km
Sa, 25.01. 19:00 99% 100 m
Sa, 25.01. 13:00 96% 0.3 km
Sa, 25.01. 7:00 96% 100 m
Sa, 25.01. 1:00 92% 2.7 km
Fr, 24.01. 19:00 89% 3.9 km
Fr, 24.01. 13:00 84% 8 km
Ortszeit Relative Feuchte Sichtweite
So, 26.01. 9:30 77% 19 km
So, 26.01. 9:20 77% -
So, 26.01. 9:10 77% -
So, 26.01. 9:00 77% 19 km
So, 26.01. 8:50 77% -
So, 26.01. 8:40 76% -
So, 26.01. 8:30 77% 19 km
So, 26.01. 8:00 77% 19 km
So, 26.01. 6:00 85% 30 km
Ortszeit Niederschlagsmenge Niederschlagsart
So, 26.01. 7:00 0.1 l/m2 in 12 Std. Regen
So, 26.01. 1:00 0.0 l/m2 in 6 Std. -
Sa, 25.01. 19:00 0.0 l/m2 in 12 Std. -
Sa, 25.01. 13:00 0.0 l/m2 in 6 Std. -
Sa, 25.01. 7:00 0.0 l/m2 in 12 Std. -
Sa, 25.01. 1:00 0.0 l/m2 in 6 Std. -
Fr, 24.01. 19:00 0.0 l/m2 in 12 Std. -
Fr, 24.01. 13:00 0.0 l/m2 in 6 Std. -
Ortszeit Niederschlagsmenge Niederschlagsart
So, 26.01. 9:30 0.0 l/m2 in 1 Std. -
So, 26.01. 9:20 keine Meldung -
So, 26.01. 9:10 keine Meldung -
So, 26.01. 9:00 0.0 l/m2 in 1 Std. -
So, 26.01. 8:50 keine Meldung -
So, 26.01. 8:40 keine Meldung -
So, 26.01. 8:30 0.0 l/m2 in 1 Std. -
So, 26.01. 8:00 0.0 l/m2 in 1 Std. -
So, 26.01. 6:00 keine Meldung -
Ortszeit Stärke Spitze Richtung
km/h Bft. km/h Grad Sektor
So, 26.01. 7:00 9 2 22 200° S
So, 26.01. 1:00 7 2 14 100° O
Sa, 25.01. 19:00 4 1 11 140° SO
Sa, 25.01. 13:00 4 1 11 290° W
Sa, 25.01. 7:00 7 2 14 220° SW
Sa, 25.01. 1:00 4 1 11 240° SW
Fr, 24.01. 19:00 6 1 11 330° NW
Fr, 24.01. 13:00 6 1 19 240° SW
Ortszeit Stärke Spitze Richtung
km/h Bft. km/h Grad Sektor
So, 26.01. 9:30 20 4 28 200° S
So, 26.01. 9:20 20 4 - 200° S
So, 26.01. 9:10 17 3 - 200° S
So, 26.01. 9:00 13 3 33 200° S
So, 26.01. 8:50 13 3 - 200° S
So, 26.01. 8:40 13 3 - 220° SW
So, 26.01. 8:30 20 4 33 210° SW
So, 26.01. 8:00 22 4 35 200° S
So, 26.01. 6:00 4 1 22 110° O
Ortszeit Untergrenze Bedeckung Gattung
total tief tief mittel hoch
So, 26.01. 7:00 2400 m 8/8 8/8 - - -
So, 26.01. 1:00 3000 m 8/8 8/8 - - -
Sa, 25.01. 19:00 <30 m 8/8 0/8 - - -
Sa, 25.01. 13:00 <30 m 8/8 0/8 - - -
Sa, 25.01. 7:00 <30 m 8/8 0/8 - - -
Sa, 25.01. 1:00 90 m 8/8 8/8 - - -
Fr, 24.01. 19:00 10500 m 1/8 0/8 - - -
Fr, 24.01. 13:00 210 m 8/8 8/8 - - -
Ortszeit Bedeckungsgrad in Achtel und Wolkenuntergrenze
So, 26.01. 9:30 2(2400m) 7(9000m)
So, 26.01. 9:20 2(2400m) 7(9000m)
So, 26.01. 9:10 4(2400m) 7(9000m)
So, 26.01. 9:00 8(2400m)
So, 26.01. 8:50 8(2400m)
So, 26.01. 8:40 8(2400m)
So, 26.01. 8:30 8(2400m)
So, 26.01. 8:00 8(2400m)
So, 26.01. 6:00 8(2700m)
Ortszeit Luftdruck NN (hPa) Tendenz (hPa in 3 Std.)
So, 26.01. 7:00 1017 - 0,7
So, 26.01. 1:00 1019 - 0,9
Sa, 25.01. 19:00 1021 0,0
Sa, 25.01. 13:00 1023 - 0,3
Sa, 25.01. 7:00 1022 - 0,5
Sa, 25.01. 1:00 1024 - 0,4
Fr, 24.01. 19:00 1024 + 0,1
Fr, 24.01. 13:00 1025 - 0,1
Ortszeit Luftdruck NN (hPa) Tendenz (hPa in 3 Std.)
So, 26.01. 9:30 1017 - 0,2
So, 26.01. 9:20 1017 keine Meldung
So, 26.01. 9:10 1017 keine Meldung
So, 26.01. 9:00 1017 - 0,1
So, 26.01. 8:50 1017 keine Meldung
So, 26.01. 8:40 1017 keine Meldung
So, 26.01. 8:30 1017 - 0,3
So, 26.01. 8:00 1017 - 0,4
So, 26.01. 6:00 1017 - 1,2
Ortszeit Schneehöhe (cm)
So, 26.01. 7:00 0
So, 26.01. 1:00 0
Sa, 25.01. 19:00 0
Sa, 25.01. 13:00 0
Sa, 25.01. 7:00 0
Sa, 25.01. 1:00 0
Fr, 24.01. 19:00 0
Fr, 24.01. 13:00 0
Ortszeit Schneehöhe (cm)
So, 26.01. 9:30 0
So, 26.01. 9:20 0
So, 26.01. 9:10 0
So, 26.01. 9:00 0
So, 26.01. 8:50 0
So, 26.01. 8:40 0
So, 26.01. 8:30 0
So, 26.01. 8:00 0
So, 26.01. 6:00 -
Link zu dieser Seite / Seite empfehlen

Das Wetter in ...